Time;durP1;ratioP1;P1;durP2;ratioP2;P2;SDS_P1;SDS_P2;PMS_P1;PMS_P2;Temp;Humidity;BMP_temperature;BMP_pressure;BME280_temperature;BME280_humidity;BME280_pressure;Samples;Min_cycle;Max_cycle;Signal;HPM_P1;HPM_P2
2020/12/28 00:02:25;;;;;;;0.60;0.50;;;5.30;99.90;;;6.18;100.00;94116.28;5013946;28;20448;-65
2020/12/28 00:04:53;;;;;;;0.60;0.53;;;5.20;99.90;;;6.09;100.00;93114.38;5008626;28;20489;-65
2020/12/28 00:07:20;;;;;;;0.60;0.50;;;5.20;99.90;;;6.26;100.00;91823.97;5001366;28;20508;-65
2020/12/28 00:09:47;;;;;;;0.60;0.50;;;5.20;99.90;;;6.16;100.00;88847.34;5018462;28;20449;-65
2020/12/28 00:12:17;;;;;;;0.60;0.57;;;5.20;99.90;;;6.17;100.00;88848.88;5017344;28;20513;-65
2020/12/28 00:14:45;;;;;;;0.60;0.50;;;5.10;99.90;;;6.19;100.00;87207.78;5034916;28;20822;-64
2020/12/28 00:17:13;;;;;;;0.60;0.50;;;5.10;99.90;;;6.12;100.00;84896.81;5035134;28;20453;-64
2020/12/28 00:19:41;;;;;;;0.60;0.50;;;5.10;99.90;;;5.97;100.00;82576.34;5017487;28;20461;-64
2020/12/28 00:22:08;;;;;;;0.60;0.60;;;5.10;99.90;;;6.09;100.00;80623.94;5034524;28;20444;-65
2020/12/28 00:24:35;;;;;;;0.60;0.60;;;5.10;99.90;;;5.99;100.00;77659.50;5017524;28;20473;-65
2020/12/28 00:27:03;;;;;;;0.60;0.53;;;5.00;99.90;;;6.06;100.00;75047.78;5012291;28;20505;-65
2020/12/28 00:29:30;;;;;;;0.60;0.60;;;5.10;99.90;;;6.08;100.00;72103.78;5008927;28;20419;-64
2020/12/28 00:31:57;;;;;;;0.60;0.60;;;5.10;99.90;;;6.05;100.00;69810.59;4994252;28;20867;-64
2020/12/28 00:34:25;;;;;;;0.60;0.60;;;5.10;99.90;;;6.00;100.00;67842.38;4993766;28;20455;-64
2020/12/28 00:36:52;;;;;;;0.60;0.60;;;5.10;99.90;;;5.92;100.00;65219.66;4998002;28;20457;-64
2020/12/28 00:39:19;;;;;;;0.60;0.60;;;5.10;99.90;;;5.89;100.00;63257.72;5013116;28;20465;-64
2020/12/28 00:41:46;;;;;;;0.60;0.60;;;5.10;99.90;;;6.00;100.00;62617.38;5013495;28;20442;-65
2020/12/28 00:44:13;;;;;;;0.70;0.60;;;5.10;99.90;;;5.97;100.00;60330.75;5013243;28;20433;-64
2020/12/28 00:46:40;;;;;;;0.60;0.50;;;5.10;99.90;;;5.92;100.00;59999.34;5013456;28;20442;-65
2020/12/28 00:49:07;;;;;;;0.60;0.60;;;5.10;99.90;;;5.97;100.00;59679.19;5013814;28;20821;-64
2020/12/28 00:51:35;;;;;;;0.60;0.50;;;5.10;99.90;;;5.96;100.00;58048.44;5012561;28;20446;-65
2020/12/28 00:54:03;;;;;;;0.70;0.60;;;5.10;99.90;;;5.90;100.00;55436.19;5028199;28;20441;-64
2020/12/28 00:56:30;;;;;;;0.60;0.60;;;5.10;99.90;;;5.88;100.00;54132.22;5009544;28;20470;-64
2020/12/28 00:58:57;;;;;;;0.60;0.50;;;5.10;99.90;;;5.84;100.00;53803.44;5011991;28;20452;-65
2020/12/28 01:01:23;;;;;;;0.63;0.60;;;5.10;99.90;;;5.80;100.00;53149.41;5011779;28;20840;-64
2020/12/28 01:03:51;;;;;;;0.60;0.60;;;5.10;99.90;;;5.85;100.00;52827.88;5013060;28;20450;-65
2020/12/28 01:06:30;;;;;;;0.60;0.60;;;5.10;99.90;;;5.81;100.00;51849.34;5011645;28;20446;-65
2020/12/28 01:09:20;;;;;;;0.63;0.57;;;5.00;99.90;;;5.93;100.00;51859.59;5012695;28;20465;-65
2020/12/28 01:11:48;;;;;;;0.60;0.50;;;5.10;99.90;;;5.93;100.00;50884.00;5012310;28;20496;-64
2020/12/28 01:14:16;;;;;;;0.60;0.60;;;5.10;99.90;;;5.87;100.00;50228.81;5011174;28;20476;-64
2020/12/28 01:16:43;;;;;;;0.60;0.50;;;5.10;99.90;;;5.96;100.00;49586.75;5013063;28;20460;-66
2020/12/28 01:19:11;;;;;;;0.60;0.50;;;5.10;99.90;;;5.96;100.00;48936.31;5028421;28;20462;-65
2020/12/28 01:21:40;;;;;;;0.60;0.60;;;5.10;99.90;;;5.99;100.00;48938.94;5012892;28;20918;-64
2020/12/28 01:24:08;;;;;;;0.60;0.50;;;5.10;99.90;;;5.92;100.00;48607.84;5008115;28;20466;-65
2020/12/28 01:26:37;;;;;;;0.60;0.50;;;5.10;99.90;;;5.98;100.00;48938.06;5009408;28;20493;-65
2020/12/28 01:29:05;;;;;;;0.60;0.60;;;5.10;99.90;;;5.95;100.00;49260.41;5011002;28;20954;-64
2020/12/28 01:31:37;;;;;;;0.60;0.60;;;5.10;99.90;;;5.99;100.00;50239.63;5012158;28;20456;-64
2020/12/28 01:34:04;;;;;;;0.60;0.50;;;5.10;99.90;;;5.89;100.00;50880.34;5013154;28;20524;-64
2020/12/28 01:36:39;;;;;;;0.60;0.50;;;5.00;99.90;;;5.87;100.00;51854.00;5010519;28;20468;-65
2020/12/28 01:39:15;;;;;;;0.60;0.50;;;5.00;99.90;;;5.77;100.00;51520.50;5011745;28;20456;-64
2020/12/28 01:41:44;;;;;;;0.60;0.50;;;4.90;99.90;;;5.67;100.00;51186.22;5011038;28;20203;-64
2020/12/28 01:44:11;;;;;;;0.60;0.50;;;4.90;99.90;;;5.72;100.00;51515.91;5011458;28;20468;-64
2020/12/28 01:46:42;;;;;;;0.60;0.50;;;4.90;99.90;;;5.76;100.00;51844.25;5011801;28;20425;-67
2020/12/28 01:49:10;;;;;;;0.60;0.50;;;4.90;99.90;;;5.74;100.00;51517.75;5013465;28;20465;-64
2020/12/28 01:51:37;;;;;;;0.60;0.53;;;4.90;99.90;;;5.76;100.00;51519.13;5031598;28;20195;-64
2020/12/28 01:54:04;;;;;;;0.60;0.60;;;5.00;99.90;;;5.88;100.00;51854.94;5029973;28;20447;-65
2020/12/28 01:56:46;;;;;;;0.60;0.60;;;5.00;99.90;;;5.90;100.00;52507.31;5014905;28;20484;-65
2020/12/28 01:59:15;;;;;;;0.60;0.60;;;5.00;99.90;;;5.86;100.00;52178.31;5014866;28;20438;-65
2020/12/28 02:01:49;;;;;;;0.60;0.50;;;5.00;99.90;;;5.82;100.00;52500.28;5029529;28;20445;-64
2020/12/28 02:04:19;;;;;;;0.60;0.50;;;5.00;99.90;;;5.87;100.00;52504.97;5030935;28;20497;-68
2020/12/28 02:06:55;;;;;;;0.60;0.60;;;5.00;99.90;;;5.95;100.00;52512.47;5029852;28;20453;-64
2020/12/28 02:09:25;;;;;;;0.60;0.50;;;5.00;99.90;;;5.94;100.00;52836.88;5014587;28;20544;-64
2020/12/28 02:11:55;;;;;;;0.60;0.60;;;5.00;99.90;;;5.96;100.00;53489.06;5014855;28;20485;-64
2020/12/28 02:14:24;;;;;;;0.60;0.60;;;5.00;99.90;;;5.86;100.00;54130.28;5010964;28;20530;-64
2020/12/28 02:17:17;;;;;;;0.60;0.50;;;5.00;99.90;;;5.95;100.00;54464.47;4994294;28;20479;-65
2020/12/28 02:19:55;;;;;;;0.60;0.50;;;5.00;99.90;;;5.82;100.00;54777.78;5008874;28;20477;-65
2020/12/28 02:22:23;;;;;;;0.60;0.60;;;5.00;99.90;;;5.94;100.00;54138.03;5015113;28;20473;-65
2020/12/28 02:24:54;;;;;;;0.60;0.60;;;5.00;99.90;;;5.91;100.00;53809.66;5031171;28;20520;-65
2020/12/28 02:27:21;;;;;;;0.60;0.50;;;5.00;99.90;;;5.96;100.00;54465.44;5014495;28;20437;-65
2020/12/28 02:29:48;;;;;;;0.60;0.50;;;5.00;99.90;;;5.89;100.00;52181.09;5014691;28;20222;-65
2020/12/28 02:32:18;;;;;;;0.60;0.50;;;5.10;99.90;;;5.98;100.00;52514.84;5014746;28;20190;-64
2020/12/28 02:34:45;;;;;;;0.60;0.50;;;5.10;99.90;;;5.95;100.00;52512.00;5014554;28;20545;-64
2020/12/28 02:37:24;;;;;;;0.60;0.50;;;5.10;99.90;;;5.94;100.00;55765.75;4999080;28;20666;-66
2020/12/28 02:40:01;;;;;;;0.60;0.60;;;5.10;99.90;;;5.73;100.00;57699.50;5009578;28;20443;-64
2020/12/28 02:42:36;;;;;;;0.60;0.57;;;4.90;99.90;;;5.68;100.00;59323.16;5003473;28;20445;-65
2020/12/28 02:45:21;;;;;;;0.60;0.60;;;4.80;99.90;;;5.55;100.00;58332.81;5015731;28;20405;-64
2020/12/28 02:48:07;;;;;;;0.60;0.50;;;4.80;99.90;;;5.50;100.00;58327.13;5015171;28;20563;-64
2020/12/28 02:50:52;;;;;;;0.60;0.60;;;4.70;99.90;;;5.45;100.00;56694.78;4996409;28;20402;-63
2020/12/28 02:53:38;;;;;;;0.60;0.57;;;4.60;99.90;;;5.48;100.00;55395.66;4995507;28;20466;-64
2020/12/28 02:56:37;;;;;;;0.60;0.60;;;4.60;99.90;;;5.43;100.00;52789.66;4994285;28;20557;-64
2020/12/28 02:59:23;;;;;;;0.60;0.57;;;4.50;99.90;;;5.36;100.00;50832.94;4998084;28;20577;-64
2020/12/28 03:02:08;;;;;;;0.60;0.50;;;4.50;99.90;;;5.29;100.00;48554.13;4996067;28;20937;-64
2020/12/28 03:04:54;;;;;;;0.60;0.50;;;4.40;99.90;;;5.31;100.00;45960.09;5014288;28;20312;-63
2020/12/28 03:07:53;;;;;;;0.60;0.60;;;4.40;99.90;;;5.44;100.00;43700.28;5003177;28;20206;-64
2020/12/28 03:10:39;;;;;;;0.60;0.50;;;4.50;99.90;;;5.48;100.00;41110.66;5015156;28;20191;-64
2020/12/28 03:13:29;;;;;;;0.60;0.50;;;4.60;99.90;;;5.58;100.00;39498.41;5004603;28;20449;-64
2020/12/28 03:16:15;;;;;;;0.60;0.60;;;4.60;99.90;;;5.57;100.00;38526.59;5015081;28;20206;-63
2020/12/28 03:19:00;;;;;;;0.60;0.60;;;4.60;99.90;;;5.62;100.00;36911.16;5021358;28;20465;-64
2020/12/28 03:21:45;;;;;;;0.60;0.50;;;4.60;99.90;;;5.55;100.00;35288.78;4994159;28;20179;-64
2020/12/28 03:24:50;;;;;;;0.60;0.50;;;4.60;99.90;;;5.57;100.00;33673.19;4973551;28;20199;-64
2020/12/28 03:27:37;;;;;;;0.60;0.50;;;4.60;99.90;;;5.51;100.00;31730.38;4980861;28;20430;-64
2020/12/28 03:30:22;;;;;;;0.60;0.53;;;4.60;99.90;;;5.60;100.00;30938.06;4996949;28;20450;-64
2020/12/28 03:33:08;;;;;;;0.60;0.50;;;4.60;99.90;;;5.49;100.00;28742.13;5008072;28;20457;-64
2020/12/28 03:35:53;;;;;;;0.60;0.57;;;4.60;99.90;;;5.49;100.00;27451.25;5001538;28;20441;-64
2020/12/28 03:38:52;;;;;;;0.60;0.50;;;4.60;99.90;;;5.41;100.00;26479.38;5002726;28;20434;-64
2020/12/28 03:41:37;;;;;;;0.60;0.50;;;4.60;99.90;;;5.54;100.00;25697.44;5013892;28;20468;-64
2020/12/28 03:44:41;;;;;;;0.60;0.57;;;4.70;99.90;;;5.55;100.00;23249.66;5010072;28;20436;-65
2020/12/28 03:47:27;;;;;;;0.60;0.50;;;4.70;99.90;;;5.61;100.00;23219.41;5012138;28;20441;-64
2020/12/28 03:50:12;;;;;;;0.60;0.50;;;4.70;99.90;;;5.58;100.00;22659.34;5014246;28;20421;-64
2020/12/28 03:52:58;;;;;;;0.60;0.50;;;4.70;99.90;;;5.61;100.00;22819.06;5014162;28;20763;-64
2020/12/28 03:55:51;;;;;;;0.60;0.60;;;4.70;99.90;;;5.61;100.00;21743.94;4998361;28;20442;-64
2020/12/28 03:58:37;;;;;;;0.60;0.50;;;4.70;99.90;;;5.57;100.00;21153.56;5013839;28;20516;-64
2020/12/28 04:01:23;;;;;;;0.60;0.50;;;4.70;99.90;;;5.54;100.00;20483.06;5014086;28;20413;-65
2020/12/28 04:04:08;;;;;;;0.60;0.50;;;4.70;99.90;;;5.54;100.00;19892.13;5013290;28;20574;-64
2020/12/28 04:06:54;;;;;;;0.60;0.50;;;4.70;99.90;;;5.53;100.00;20316.66;5002619;28;20430;-64
2020/12/28 04:09:46;;;;;;;0.60;0.50;;;4.80;99.90;;;5.66;100.00;20110.50;4986051;28;20438;-65
2020/12/28 04:12:32;;;;;;;0.60;0.60;;;4.80;99.90;;;5.63;100.00;19558.22;4996154;28;20332;-65
2020/12/28 04:14:59;;;;;;;0.60;0.60;;;4.80;99.90;;;5.61;100.00;19570.22;5014003;28;20266;-65
2020/12/28 04:17:27;;;;;;;0.60;0.60;;;4.80;99.90;;;5.56;100.00;19573.28;5012501;28;20468;-65
2020/12/28 04:19:54;;;;;;;0.60;0.50;;;4.80;99.90;;;5.52;100.00;18927.97;5012264;28;20472;-65
2020/12/28 04:22:21;;;;;;;0.60;0.50;;;4.80;99.90;;;5.45;100.00;18963.22;5013469;28;20445;-65
2020/12/28 04:24:48;;;;;;;0.60;0.60;;;4.70;99.90;;;5.26;100.00;18164.41;5028930;28;20593;-64
2020/12/28 04:27:16;;;;;;;0.63;0.60;;;4.60;99.90;;;5.04;100.00;17538.84;5028779;28;20624;-65
2020/12/28 04:29:43;;;;;;;0.60;0.55;;;4.40;99.90;;;4.94;100.00;17454.78;5013718;28;20231;-65
2020/12/28 04:32:10;;;;;;;0.60;0.50;;;4.30;99.90;;;4.82;100.00;17503.59;5014144;28;20243;-64
2020/12/28 04:34:37;;;;;;;0.60;0.60;;;4.20;99.90;;;4.76;100.00;17639.38;5004107;28;20273;-64
2020/12/28 04:37:04;;;;;;;0.60;0.50;;;4.10;99.90;;;4.83;100.00;17973.28;5013177;28;20203;-65
2020/12/28 04:39:31;;;;;;;0.65;0.60;;;4.20;99.90;;;4.81;100.00;17937.59;5014131;28;20222;-64
2020/12/28 04:41:58;;;;;;;0.60;0.50;;;4.20;99.90;;;5.01;100.00;18602.59;5013600;28;20191;-65
2020/12/28 04:44:29;;;;;;;0.60;0.60;;;4.30;99.90;;;5.15;100.00;18461.88;5012217;28;20593;-64
2020/12/28 04:46:56;;;;;;;0.60;0.60;;;4.40;99.90;;;5.12;100.00;17832.91;5012294;28;20198;-65
2020/12/28 04:49:24;;;;;;;0.60;0.52;;;4.40;99.90;;;5.25;100.00;17807.44;5013115;28;20502;-64
2020/12/28 04:51:54;;;;;;;0.60;0.50;;;4.50;99.90;;;5.17;100.00;17221.78;5004257;28;20183;-64
2020/12/28 04:54:21;;;;;;;0.60;0.50;;;4.50;99.90;;;5.19;100.00;16941.16;4996168;28;20454;-65
2020/12/28 04:56:48;;;;;;;0.60;0.50;;;4.50;99.90;;;5.12;100.00;17199.94;5012993;28;20297;-65
2020/12/28 04:59:16;;;;;;;0.60;0.50;;;4.40;99.90;;;5.05;100.00;17388.34;5013015;28;20454;-65
2020/12/28 05:01:52;;;;;;;0.60;0.50;;;4.40;99.90;;;5.01;100.00;17768.66;5013312;28;20272;-64
2020/12/28 05:04:22;;;;;;;0.60;0.57;;;4.30;99.90;;;5.17;100.00;18623.63;5013075;28;20206;-65
2020/12/28 05:06:57;;;;;;;0.60;0.50;;;4.40;99.90;;;5.27;100.00;19421.63;5011934;28;20244;-66
2020/12/28 05:09:24;;;;;;;0.60;0.50;;;4.50;99.90;;;5.41;100.00;20412.44;5028481;28;20219;-65
2020/12/28 05:11:54;;;;;;;0.60;0.50;;;4.60;99.90;;;5.44;100.00;20876.69;5013491;28;20586;-64
2020/12/28 05:14:21;;;;;;;0.60;0.53;;;4.60;99.90;;;5.47;100.00;22503.25;5013001;28;20222;-64
2020/12/28 05:16:49;;;;;;;0.60;0.60;;;4.60;99.90;;;5.58;100.00;24993.91;5013012;28;20515;-65
2020/12/28 05:19:18;;;;;;;0.60;0.50;;;4.70;99.90;;;5.48;100.00;26783.03;5013074;28;20508;-66
2020/12/28 05:21:46;;;;;;;0.60;0.50;;;4.70;99.90;;;5.65;100.00;29381.19;5013739;28;20423;-66
2020/12/28 05:24:14;;;;;;;0.60;0.50;;;4.70;99.90;;;5.64;100.00;31162.22;5015306;28;20449;-65
2020/12/28 05:26:43;;;;;;;0.60;0.50;;;4.70;99.90;;;5.59;100.00;32255.19;5016852;28;20926;-64
2020/12/28 05:29:14;;;;;;;0.60;0.50;;;4.60;99.90;;;5.53;100.00;33994.00;5015530;28;20442;-65
2020/12/28 05:31:44;;;;;;;0.60;0.60;;;4.60;99.90;;;5.61;100.00;35616.19;5016975;28;20175;-65
2020/12/28 05:34:16;;;;;;;0.60;0.50;;;4.60;99.90;;;5.70;100.00;36592.91;5016498;28;20788;-65
2020/12/28 05:36:46;;;;;;;0.60;0.50;;;4.70;99.90;;;5.66;100.00;38208.41;5031852;28;20458;-64
2020/12/28 05:39:16;;;;;;;0.60;0.60;;;4.70;99.90;;;5.56;100.00;40144.75;5011345;28;20489;-65
2020/12/28 05:41:54;;;;;;;0.60;0.60;;;4.60;99.90;;;5.54;100.00;41763.59;5003536;28;20640;-65
2020/12/28 05:44:24;;;;;;;0.60;0.60;;;4.60;99.90;;;5.53;100.00;42086.56;5016104;28;20483;-65
2020/12/28 05:47:02;;;;;;;0.60;0.50;;;4.60;99.90;;;5.57;100.00;42089.59;5031963;28;20464;-65
2020/12/28 05:49:35;;;;;;;0.60;0.60;;;4.70;99.90;;;5.52;100.00;43382.38;5016334;28;20457;-65
2020/12/28 05:52:04;;;;;;;0.60;0.60;;;4.70;99.90;;;5.58;100.00;45008.72;5016356;28;20480;-65
2020/12/28 05:54:33;;;;;;;0.60;0.60;;;4.70;99.90;;;5.57;100.00;45981.22;5016346;28;20507;-65
2020/12/28 05:57:00;;;;;;;0.60;0.50;;;4.70;99.90;;;5.67;100.00;47287.53;5015998;28;20508;-65
2020/12/28 05:59:27;;;;;;;0.60;0.60;;;4.80;99.90;;;5.61;100.00;48256.91;5015578;28;20500;-66
2020/12/28 06:01:56;;;;;;;0.60;0.60;;;4.80;99.90;;;5.64;100.00;48908.63;5015978;28;20195;-66
2020/12/28 06:04:23;;;;;;;0.60;0.50;;;4.80;99.90;;;5.73;100.00;51516.81;5014474;28;20512;-65
2020/12/28 06:06:57;;;;;;;0.60;0.50;;;4.80;99.90;;;5.67;100.00;51836.38;4998085;28;20435;-65
2020/12/28 06:09:24;;;;;;;0.60;0.60;;;4.80;99.90;;;5.65;100.00;52159.63;4997469;28;20419;-65
2020/12/28 06:12:03;;;;;;;0.60;0.60;;;4.80;99.90;;;5.68;100.00;54113.84;5015540;28;20524;-66
2020/12/28 06:14:35;;;;;;;0.60;0.60;;;4.80;99.90;;;5.67;100.00;55414.44;5015908;28;20453;-65
2020/12/28 06:17:06;;;;;;;0.60;0.60;;;4.80;99.90;;;5.73;100.00;56396.94;5015921;28;20560;-65
2020/12/28 06:19:33;;;;;;;0.60;0.50;;;4.80;99.90;;;5.66;100.00;55413.44;5015588;28;20844;-64
2020/12/28 06:22:00;;;;;;;0.60;0.60;;;4.80;99.90;;;5.63;100.00;57363.09;5016428;28;20434;-65
2020/12/28 06:24:30;;;;;;;0.70;0.60;;;4.70;99.90;;;5.49;100.00;57349.34;5015695;28;20261;-66
2020/12/28 06:27:06;;;;;;;0.60;0.60;;;4.70;99.90;;;5.47;100.00;57347.28;5015894;28;20480;-65
2020/12/28 06:29:35;;;;;;;0.60;0.50;;;4.70;99.90;;;5.36;100.00;57010.63;5003656;28;20423;-65
2020/12/28 06:32:11;;;;;;;0.60;0.50;;;4.60;99.90;;;5.35;100.00;58312.09;4996180;28;20469;-65
2020/12/28 06:34:39;;;;;;;0.60;0.60;;;4.50;99.90;;;5.11;100.00;59264.16;4995310;28;20450;-65
2020/12/28 06:37:06;;;;;;;0.60;0.50;;;4.40;99.90;;;4.94;100.00;61525.06;4996118;28;20246;-65
2020/12/28 06:39:34;;;;;;;0.60;0.60;;;4.20;99.90;;;4.99;100.00;63811.00;5004382;28;20506;-65
2020/12/28 06:42:10;;;;;;;0.70;0.60;;;4.20;99.90;;;4.79;100.00;64440.63;5015641;28;20187;-65
2020/12/28 06:44:37;;;;;;;0.60;0.60;;;4.10;99.90;;;4.68;100.00;66709.97;5016092;28;20175;-65
2020/12/28 06:47:16;;;;;;;0.60;0.60;;;4.00;99.90;;;4.63;100.00;67682.16;5015332;28;20558;-65
2020/12/28 06:49:44;;;;;;;0.60;0.60;;;4.00;99.90;;;4.55;100.00;68650.84;5013785;28;20276;-64
2020/12/28 06:52:11;;;;;;;0.60;0.57;;;3.90;99.90;;;4.43;100.00;69940.78;5015552;28;20271;-65
2020/12/28 06:54:38;;;;;;;0.60;0.60;;;3.80;99.90;;;4.15;100.00;70232.94;5014270;28;20199;-65
2020/12/28 06:57:06;;;;;;;0.70;0.60;;;3.60;99.90;;;4.07;100.00;71854.16;5012650;28;20217;-65
2020/12/28 06:59:35;;;;;;;0.63;0.60;;;3.50;99.90;;;3.98;100.00;73147.53;5015427;28;20198;-66
2020/12/28 07:02:03;;;;;;;0.60;0.60;;;3.50;99.90;;;4.05;100.00;73157.19;5015562;28;20250;-65
2020/12/28 07:04:36;;;;;;;0.65;0.57;;;3.50;99.90;;;3.95;100.00;72818.06;5014720;28;20243;-65
2020/12/28 07:07:05;;;;;;;0.60;0.50;;;3.40;99.90;;;3.93;100.00;72814.88;5014971;28;20175;-65
2020/12/28 07:09:33;;;;;;;0.60;0.60;;;3.30;99.90;;;3.79;100.00;71819.34;5011206;28;20241;-65
2020/12/28 07:12:07;;;;;;;0.60;0.60;;;3.30;99.90;;;3.84;100.00;71174.25;4995708;28;20223;-65
2020/12/28 07:14:36;;;;;;;0.60;0.60;;;3.30;99.90;;;3.74;100.00;70184.03;4997550;28;20559;-65
2020/12/28 07:17:03;;;;;;;0.60;0.60;;;3.20;99.90;;;3.78;100.00;69863.13;5013560;28;20218;-65
2020/12/28 07:19:30;;;;;;;0.60;0.57;;;3.20;99.90;;;3.82;100.00;69215.78;5014657;28;20586;-65
2020/12/28 07:21:57;;;;;;;0.60;0.55;;;3.30;99.90;;;3.81;100.00;68237.94;5014889;28;20180;-65
2020/12/28 07:24:24;;;;;;;0.60;0.60;;;3.30;99.90;;;3.75;100.00;67579.44;5014673;28;20701;-66
2020/12/28 07:26:51;;;;;;;0.60;0.60;;;3.20;99.90;;;3.72;100.00;66924.75;5013810;28;20557;-65
2020/12/28 07:29:19;;;;;;;0.60;0.60;;;3.20;99.90;;;3.69;100.00;65618.84;5014910;28;20229;-66
2020/12/28 07:31:47;;;;;;;0.60;0.60;;;3.20;99.90;;;3.70;100.00;64969.88;5003665;28;20755;-65
2020/12/28 07:34:15;;;;;;;0.60;0.60;;;3.20;99.90;;;3.77;100.00;64001.41;4997494;28;20665;-68
2020/12/28 07:36:45;;;;;;;0.60;0.55;;;3.30;99.90;;;3.67;100.00;62690.00;5002429;28;20294;-65
2020/12/28 07:39:13;;;;;;;0.60;0.60;;;3.20;99.90;;;3.45;100.00;61041.06;5013643;28;20195;-66
2020/12/28 07:41:42;;;;;;;0.60;0.50;;;3.00;99.90;;;3.30;100.00;59726.66;5014131;28;20205;-65
2020/12/28 07:44:13;;;;;;;0.60;0.60;;;2.90;99.90;;;3.28;100.00;58750.88;5014272;28;20194;-65
2020/12/28 07:46:56;;;;;;;0.60;0.60;;;2.80;99.90;;;3.14;100.00;57439.25;5013796;28;20179;-65
2020/12/28 07:49:25;;;;;;;0.60;0.50;;;2.80;99.90;;;3.07;100.00;56135.25;5012935;28;20245;-65
2020/12/28 07:52:07;;;;;;;0.60;0.60;;;2.60;99.90;;;2.88;100.00;53849.63;5014420;28;20179;-66
2020/12/28 07:54:44;;;;;;;0.60;0.60;;;2.50;99.90;;;2.75;100.00;51571.50;5014208;28;20213;-65
2020/12/28 07:57:18;;;;;;;0.60;0.55;;;2.50;99.90;;;2.74;100.00;50276.19;5014364;28;20655;-66
2020/12/28 08:00:05;;;;;;;0.60;0.50;;;2.40;99.90;;;2.80;100.00;48988.53;5014320;28;20567;-65
2020/12/28 08:02:52;;;;;;;0.60;0.60;;;2.50;99.90;;;2.85;100.00;47376.53;5011866;28;20626;-66
2020/12/28 08:05:22;;;;;;;0.60;0.50;;;2.60;99.90;;;3.08;100.00;46748.75;5000562;28;20211;-66
2020/12/28 08:07:50;;;;;;;0.60;0.50;;;2.80;99.90;;;3.21;100.00;46113.13;5011747;28;20183;-65
2020/12/28 08:10:17;;;;;;;0.60;0.60;;;2.80;99.90;;;3.27;100.00;45148.34;5012107;28;20199;-66
2020/12/28 08:12:52;;;;;;;0.60;0.50;;;2.90;99.90;;;3.40;100.00;44188.88;5009151;28;20253;-69
2020/12/28 08:15:30;;;;;;;0.60;0.50;;;3.00;99.90;;;3.41;100.00;42896.78;5005679;28;20583;-65
2020/12/28 08:18:09;;;;;;;0.60;0.50;;;3.00;99.90;;;3.61;100.00;42589.22;5008691;28;20238;-65
2020/12/28 08:20:37;;;;;;;0.60;0.52;;;3.20;99.90;;;3.66;100.00;41623.72;5021675;28;20191;-65
2020/12/28 08:23:04;;;;;;;0.60;0.60;;;3.20;99.90;;;3.61;100.00;40650.97;5000627;28;20234;-65
2020/12/28 08:25:33;;;;;;;0.60;0.50;;;3.20;99.90;;;3.58;100.00;40003.28;4994377;28;20266;-66
2020/12/28 08:28:02;;;;;;;0.60;0.60;;;3.20;99.90;;;3.62;100.00;39360.13;5001737;28;20665;-65
2020/12/28 08:30:32;;;;;;;0.60;0.50;;;3.20;99.90;;;3.72;100.00;39044.44;5006271;28;20198;-66
2020/12/28 08:33:01;;;;;;;0.60;0.50;;;3.30;99.90;;;3.69;100.00;38396.69;5013189;28;20190;-66
2020/12/28 08:35:30;;;;;;;0.60;0.50;;;3.20;99.90;;;3.80;100.00;38081.59;5003917;28;20184;-66
2020/12/28 08:37:58;;;;;;;0.60;0.60;;;3.40;99.90;;;3.97;100.00;38092.78;5007014;28;20215;-65
2020/12/28 08:40:25;;;;;;;0.60;0.50;;;3.50;99.90;;;4.15;100.00;38105.34;5013136;28;20213;-66
2020/12/28 08:42:53;;;;;;;0.60;0.50;;;3.60;99.90;;;4.30;100.00;38115.81;5002696;28;20181;-65
2020/12/28 08:45:22;;;;;;;0.60;0.50;;;3.60;99.90;;;4.34;100.00;37149.13;4993925;28;20204;-66
2020/12/28 08:47:53;;;;;;;0.60;0.60;;;3.70;99.90;;;4.44;100.00;36832.91;5009118;28;20196;-65
2020/12/28 08:50:21;;;;;;;0.60;0.50;;;3.80;99.90;;;4.63;100.00;36845.09;5009859;28;20560;-65
2020/12/28 08:52:51;;;;;;;0.60;0.60;;;3.90;99.90;;;4.80;100.00;36856.63;5013525;28;20207;-66
2020/12/28 08:55:19;;;;;;;0.60;0.50;;;4.00;99.90;;;4.98;100.00;36868.47;5013525;28;20175;-66
2020/12/28 08:57:55;;;;;;;0.60;0.50;;;4.20;99.90;;;4.91;100.00;36217.25;5014617;28;20646;-66
2020/12/28 09:00:23;;;;;;;0.60;0.50;;;4.20;99.90;;;5.13;100.00;37848.91;5032603;28;20183;-66
2020/12/28 09:02:53;;;;;;;0.60;0.50;;;4.30;99.90;;;5.39;100.00;40132.31;5016173;28;20260;-66
2020/12/28 09:05:20;;;;;;;0.60;0.50;;;4.40;99.90;;;5.14;100.00;39791.06;5005173;28;20989;-66
2020/12/28 09:07:48;;;;;;;0.60;0.50;;;4.30;99.90;;;5.43;100.00;42402.97;4997737;28;20454;-66
2020/12/28 09:10:16;;;;;;;0.60;0.50;;;4.30;99.90;;;5.43;100.00;43375.31;4998035;28;20500;-66
2020/12/28 09:12:44;;;;;;;0.60;0.60;;;4.40;99.90;;;5.30;100.00;44662.09;5020759;28;20513;-66
2020/12/28 09:15:11;;;;;;;0.60;0.50;;;4.50;99.90;;;5.43;100.00;46943.00;5007633;28;20445;-66
2020/12/28 09:17:39;;;;;;;0.60;0.60;;;4.50;99.90;;;5.50;100.00;48247.34;5004637;28;20565;-67
2020/12/28 09:20:06;;;;;;;0.60;0.50;;;4.50;99.90;;;5.53;100.00;50848.91;5016113;28;20469;-69
2020/12/28 09:22:33;;;;;;;0.60;0.60;;;4.50;99.90;;;5.47;100.00;52467.88;5007230;28;20422;-65
2020/12/28 09:25:01;;;;;;;0.60;0.50;;;4.50;99.90;;;5.20;100.00;52768.44;5004361;28;20442;-67
2020/12/28 09:27:28;;;;;;;0.60;0.50;;;4.40;99.90;;;5.01;100.00;54375.59;4996120;28;20167;-65
2020/12/28 09:29:55;;;;;;;0.63;0.60;;;4.30;99.90;;;4.87;100.00;55661.47;4997150;28;20422;-66
2020/12/28 09:32:22;;;;;;;0.60;0.50;;;4.20;99.90;;;4.74;100.00;57274.38;5002889;28;20564;-66
2020/12/28 09:34:51;;;;;;;0.60;0.50;;;4.00;99.90;;;4.72;100.00;58247.84;5016645;28;20515;-66
2020/12/28 09:37:18;;;;;;;0.60;0.60;;;4.00;99.90;;;4.63;100.00;59539.97;5015311;28;20465;-66
2020/12/28 09:39:45;;;;;;;0.60;0.50;;;3.90;99.90;;;4.61;100.00;59537.88;5001640;28;20507;-65
2020/12/28 09:42:13;;;;;;;0.60;0.50;;;4.00;99.90;;;4.48;100.00;61150.59;5016578;28;20449;-66
2020/12/28 09:44:40;;;;;;;0.60;0.60;;;3.90;99.90;;;4.38;100.00;62441.25;5015007;28;20287;-66
2020/12/28 09:47:07;;;;;;;0.60;0.50;;;3.80;99.90;;;4.38;100.00;63417.72;5006847;28;20449;-66
2020/12/28 09:49:37;;;;;;;0.60;0.50;;;3.80;99.90;;;4.34;100.00;64716.09;5008146;28;20254;-66
2020/12/28 09:52:04;;;;;;;0.60;0.60;;;3.70;99.90;;;4.32;100.00;66017.16;5005882;28;20453;-66
2020/12/28 09:54:34;;;;;;;0.60;0.50;;;3.80;99.90;;;4.46;100.00;67009.94;5016228;28;20581;-66
2020/12/28 09:57:05;;;;;;;0.60;0.50;;;3.80;99.90;;;4.66;100.00;67033.63;5015725;28;20469;-66
2020/12/28 09:59:35;;;;;;;0.60;0.50;;;4.00;99.90;;;4.68;100.00;66709.97;5015108;28;20536;-65
2020/12/28 10:02:02;;;;;;;0.60;0.60;;;4.10;99.90;;;4.73;100.00;67693.50;5013723;28;20273;-66
2020/12/28 10:04:29;;;;;;;0.60;0.60;;;4.10;99.90;;;4.85;100.00;67708.44;5009286;28;20691;-65
2020/12/28 10:06:56;;;;;;;0.60;0.50;;;4.10;99.90;;;4.88;100.00;68037.06;5014465;28;20191;-66
2020/12/28 10:09:23;;;;;;;0.60;0.60;;;4.20;99.90;;;4.93;100.00;68369.34;4996842;28;20199;-66
2020/12/28 10:11:51;;;;;;;0.60;0.60;;;4.30;99.90;;;5.04;100.00;68709.59;5009290;28;20191;-66
2020/12/28 10:14:18;;;;;;;0.60;0.60;;;4.30;99.90;;;5.26;100.00;69062.16;5014785;28;20500;-66
2020/12/28 10:16:46;;;;;;;0.60;0.60;;;4.50;99.90;;;5.40;100.00;68098.91;5012276;28;20476;-66
2020/12/28 10:19:12;;;;;;;0.60;0.60;;;4.60;99.90;;;5.51;100.00;68111.53;5013759;28;20497;-65
2020/12/28 10:21:40;;;;;;;0.60;0.50;;;4.70;99.90;;;5.79;100.00;68798.69;5013877;28;20449;-65
2020/12/28 10:24:07;;;;;;;0.60;0.60;;;4.90;99.90;;;5.94;100.00;68162.63;5014095;28;20454;-66
2020/12/28 10:26:34;;;;;;;0.60;0.60;;;5.00;99.90;;;6.20;100.00;68520.25;5004925;28;20453;-66
2020/12/28 10:29:01;;;;;;;0.60;0.60;;;5.10;99.90;;;6.25;100.00;68526.28;5010734;28;20472;-66
2020/12/28 10:31:28;;;;;;;0.60;0.50;;;5.20;99.90;;;6.37;100.00;68540.19;5011748;28;20450;-66
2020/12/28 10:33:56;;;;;;;0.60;0.50;;;5.30;99.90;;;6.59;100.00;69219.97;5025443;28;20994;-66
2020/12/28 10:36:25;;;;;;;0.60;0.50;;;5.40;99.90;;;6.47;100.00;67897.44;5001274;28;20453;-66
2020/12/28 10:39:12;;;;;;;0.70;0.70;;;5.50;99.90;;;6.62;100.00;68897.00;5013686;28;20579;-67
2020/12/28 10:41:41;;;;;;;0.70;0.60;;;5.50;99.90;;;6.78;100.00;66298.19;5010527;28;20533;-66
2020/12/28 10:44:08;;;;;;;0.67;0.60;;;5.60;99.90;;;6.85;100.00;65978.69;5008773;28;20458;-66
2020/12/28 10:46:37;;;;;;;0.70;0.60;;;5.70;99.90;;;6.74;100.00;66294.09;5013719;28;20442;-66